Time;durP1;ratioP1;P1;durP2;ratioP2;P2;SDS_P1;SDS_P2;PMS_P1;PMS_P2;Temp;Humidity;BMP_temperature;BMP_pressure;BME280_temperature;BME280_humidity;BME280_pressure;Samples;Min_cycle;Max_cycle;Signal;HPM_P1;HPM_P2
2022/01/17 00:01:21;;;;;;;;;;;;;;;-6.39;80.98;97744.98;110167;1247;59732;-66
2022/01/17 00:03:51;;;;;;;29.80;16.30;;;;;;;-6.40;80.35;97750.42;110207;1247;59809;-66
2022/01/17 00:06:21;;;;;;;24.40;14.60;;;;;;;-6.43;80.00;97752.61;110163;1247;71481;-66
2022/01/17 00:08:50;;;;;;;69.00;38.40;;;;;;;-6.45;79.53;97760.08;110166;1247;67818;-66
2022/01/17 00:11:20;;;;;;;39.50;25.20;;;;;;;-6.47;79.50;97754.14;109970;1250;70042;-66
2022/01/17 00:13:49;;;;;;;30.40;16.70;;;;;;;-6.49;79.41;97750.41;110052;1250;59941;-67
2022/01/17 00:16:24;;;;;;;49.00;27.40;;;;;;;-6.48;78.90;97741.42;109988;1250;60140;-67
2022/01/17 00:19:17;;;;;;;41.50;23.90;;;;;;;-6.46;79.15;97742.63;110021;1249;71570;-67
2022/01/17 00:21:42;;;;;;;44.20;22.50;;;;;;;-6.46;78.93;97739.91;110102;1248;68721;-67
2022/01/17 00:24:12;;;;;;;52.70;28.00;;;;;;;-6.48;78.89;97743.45;110147;1247;69530;-66
2022/01/17 00:26:41;;;;;;;41.90;24.00;;;;;;;-6.51;78.91;97747.19;109977;1250;59681;-69
2022/01/17 00:29:10;;;;;;;29.70;16.80;;;;;;;-6.55;78.83;97745.67;110181;1247;59748;-69
2022/01/17 00:31:39;;;;;;;33.40;20.20;;;;;;;-6.59;78.43;97749.91;110199;1247;70853;-68
2022/01/17 00:34:09;;;;;;;56.50;31.60;;;;;;;-6.64;78.67;97751.92;110262;1247;68547;-68
2022/01/17 00:36:38;;;;;;;57.00;30.50;;;;;;;-6.69;78.77;97753.96;110166;1247;69431;-69
2022/01/17 00:39:08;;;;;;;65.00;34.70;;;;;;;-6.75;78.68;97754.31;109915;1250;59689;-64
2022/01/17 00:41:37;;;;;;;70.20;38.50;;;;;;;-6.78;78.92;97753.28;110136;1247;59684;-66
2022/01/17 00:44:06;;;;;;;35.20;19.40;;;;;;;-6.81;78.88;97751.41;110222;1247;70667;-68
2022/01/17 00:46:37;;;;;;;48.70;26.80;;;;;;;-6.83;78.51;97753.45;110207;1247;69219;-65
2022/01/17 00:49:06;;;;;;;92.50;50.00;;;;;;;-6.85;78.60;97749.89;110230;1247;68471;-65
2022/01/17 00:51:35;;;;;;;84.80;44.50;;;;;;;-6.93;80.54;97745.64;110169;1247;59671;-66
2022/01/17 00:54:04;;;;;;;46.10;27.90;;;;;;;-7.01;80.77;97738.68;110174;1247;59734;-66
2022/01/17 00:56:33;;;;;;;72.90;35.50;;;;;;;-7.05;79.70;97735.78;110146;1247;71883;-66
2022/01/17 00:59:03;;;;;;;74.00;40.20;;;;;;;-7.09;79.09;97729.17;110253;1245;68506;-67
2022/01/17 01:01:33;;;;;;;88.20;45.10;;;;;;;-7.12;79.25;97727.13;110239;1246;68641;-67
2022/01/17 01:04:03;;;;;;;53.70;33.90;;;;;;;-7.17;79.91;97730.50;110092;1247;59677;-68
2022/01/17 01:06:36;;;;;;;87.10;46.20;;;;;;;-7.23;79.85;97726.42;110016;1249;59656;-66
2022/01/17 01:09:06;;;;;;;99.80;50.40;;;;;;;-7.28;80.29;97719.98;110059;1246;71515;-66
2022/01/17 01:11:36;;;;;;;92.30;45.90;;;;;;;-7.34;80.15;97713.52;109942;1250;68725;-66
2022/01/17 01:14:06;;;;;;;53.50;30.10;;;;;;;-7.38;80.23;97706.59;110053;1247;69575;-66
2022/01/17 01:16:37;;;;;;;53.30;31.70;;;;;;;-7.40;80.04;97711.30;110200;1247;59694;-66
2022/01/17 01:19:26;;;;;;;30.40;22.40;;;;;;;-7.42;79.98;97710.29;109991;1250;59742;-68
2022/01/17 01:27:42;;;;;;;105.10;54.10;;;;;;;-7.44;81.53;97701.98;109988;1250;69306;-65
2022/01/17 01:30:14;;;;;;;91.20;48.40;;;;;;;-7.52;82.65;97696.20;110215;1247;59749;-68
2022/01/17 01:32:51;;;;;;;47.30;28.10;;;;;;;-7.58;82.59;97691.45;110211;1247;59666;-66
2022/01/17 01:35:23;;;;;;;53.40;28.20;;;;;;;-7.61;81.94;97675.37;110006;1249;71416;-66
2022/01/17 01:37:53;;;;;;;42.00;23.60;;;;;;;-7.57;80.45;97665.55;110166;1247;68448;-67
2022/01/17 01:40:22;;;;;;;32.80;18.50;;;;;;;-7.59;80.40;97660.30;110135;1247;68354;-66
2022/01/17 01:42:53;;;;;;;50.70;30.50;;;;;;;-7.61;80.83;97655.05;110037;1247;59674;-68
2022/01/17 01:45:23;;;;;;;46.60;26.00;;;;;;;-7.67;83.52;97659.77;110236;1247;59672;-66
2022/01/17 01:47:53;;;;;;;48.20;26.90;;;;;;;-7.69;83.12;97656.88;110164;1247;70792;-66
2022/01/17 01:50:23;;;;;;;66.30;35.40;;;;;;;-7.70;82.92;97648.92;110133;1248;68623;-68
2022/01/17 01:52:52;;;;;;;40.30;24.00;;;;;;;-7.69;83.37;97648.59;109934;1248;69392;-66
2022/01/17 01:55:22;;;;;;;50.40;29.10;;;;;;;-7.66;82.71;97647.59;110064;1250;59880;-68
2022/01/17 01:57:52;;;;;;;52.90;32.20;;;;;;;-7.67;82.50;97642.67;110095;1250;59757;-66
2022/01/17 02:00:21;;;;;;;41.30;23.80;;;;;;;-7.68;81.92;97652.14;110162;1248;71518;-66
2022/01/17 02:02:52;;;;;;;44.20;25.10;;;;;;;-7.69;81.23;97650.63;110105;1249;68549;-66
2022/01/17 02:05:21;;;;;;;59.40;32.10;;;;;;;-7.70;81.11;97647.92;109984;1250;69846;-66
2022/01/17 02:07:51;;;;;;;33.20;18.10;;;;;;;-7.70;81.34;97643.02;110098;1250;59726;-67
2022/01/17 02:10:21;;;;;;;31.40;18.70;;;;;;;-7.69;80.36;97639.45;110087;1248;59673;-66
2022/01/17 02:12:51;;;;;;;40.40;21.40;;;;;;;-7.67;79.76;97630.48;109912;1250;70761;-67
2022/01/17 02:15:20;;;;;;;30.20;18.50;;;;;;;-7.70;80.16;97633.52;110072;1250;68621;-67
2022/01/17 02:17:55;;;;;;;54.80;25.40;;;;;;;-7.70;80.32;97635.55;109960;1250;69288;-67
2022/01/17 02:20:40;;;;;;;31.80;17.60;;;;;;;-7.72;80.83;97630.48;110005;1249;59704;-68
2022/01/17 02:23:11;;;;;;;52.90;25.90;;;;;;;-7.72;80.29;97627.41;109933;1248;60238;-66
2022/01/17 02:25:41;;;;;;;27.90;18.70;;;;;;;-7.73;80.41;97623.86;109851;1249;71610;-66
2022/01/17 02:28:10;;;;;;;38.10;21.80;;;;;;;-7.73;80.28;97619.98;109963;1250;67959;-68
2022/01/17 02:30:40;;;;;;;33.20;16.60;;;;;;;-7.71;80.26;97626.77;110174;1247;69316;-67
2022/01/17 02:33:10;;;;;;;;;;;;;;;-7.70;80.37;97625.91;110146;1247;59675;-69
2022/01/17 02:35:39;;;;;;;39.90;19.50;;;;;;;-7.69;81.41;97627.60;110102;1250;59752;-67
2022/01/17 02:38:08;;;;;;;47.70;24.40;;;;;;;-7.67;81.47;97627.44;109983;1249;71641;-67
2022/01/17 02:40:38;;;;;;;35.70;22.40;;;;;;;-7.66;79.93;97623.05;110064;1247;67711;-67
2022/01/17 02:43:08;;;;;;;38.80;22.70;;;;;;;-7.64;79.82;97626.93;110193;1248;68414;-66
2022/01/17 02:46:24;;;;;;;51.90;27.90;;;;;;;-7.63;79.40;97619.66;109960;1247;59694;-68
2022/01/17 02:48:32;;;;;;;50.30;25.90;;;;;;;-7.62;79.44;97620.52;110207;1247;59729;-65
2022/01/17 02:51:03;;;;;;;38.10;22.20;;;;;;;-7.63;79.85;97621.35;110048;1247;71518;-66
2022/01/17 02:53:33;;;;;;;38.80;22.90;;;;;;;-7.65;79.71;97626.09;110169;1247;67756;-67
2022/01/17 02:56:06;;;;;;;47.30;28.30;;;;;;;-7.66;79.89;97629.65;110107;1248;69306;-67
2022/01/17 02:58:38;;;;;;;52.70;26.70;;;;;;;-7.67;80.12;97629.46;110018;1250;59692;-66
2022/01/17 03:01:28;;;;;;;60.70;31.10;;;;;;;-7.69;79.96;97620.66;110105;1248;59682;-69
2022/01/17 03:03:59;;;;;;;47.30;28.10;;;;;;;-7.68;80.18;97610.33;110259;1247;71524;-69
2022/01/17 03:06:28;;;;;;;52.10;26.50;;;;;;;-7.65;80.41;97608.66;110228;1247;68552;-67
2022/01/17 03:08:58;;;;;;;90.20;47.60;;;;;;;-7.64;80.42;97601.04;110155;1247;69298;-67
2022/01/17 03:11:28;;;;;;;72.40;37.60;;;;;;;-7.61;81.42;97607.83;110247;1247;59654;-66
2022/01/17 03:13:58;;;;;;;;;;;;;;;-7.57;81.73;97602.07;110198;1247;59643;-65
2022/01/17 03:16:30;;;;;;;51.80;26.90;;;;;;;-7.52;81.31;97600.56;110215;1247;71390;-67
2022/01/17 03:19:01;;;;;;;36.60;20.70;;;;;;;-7.46;81.31;97602.27;110225;1247;67664;-68
2022/01/17 03:21:32;;;;;;;69.20;37.60;;;;;;;-7.40;80.73;97586.69;110114;1249;69035;-67
2022/01/17 03:24:03;;;;;;;42.30;26.00;;;;;;;-7.37;81.08;97588.39;110143;1247;59718;-66
2022/01/17 03:26:33;;;;;;;57.40;28.10;;;;;;;-7.36;80.49;97583.64;110255;1248;59760;-66
2022/01/17 03:29:04;;;;;;;79.90;40.90;;;;;;;-7.36;80.65;97586.85;110248;1247;70577;-66
2022/01/17 03:31:33;;;;;;;40.10;24.60;;;;;;;-7.35;80.88;97586.02;110224;1247;68542;-67
2022/01/17 03:34:04;;;;;;;72.20;38.60;;;;;;;-7.33;80.45;97592.12;110051;1247;68606;-66
2022/01/17 03:36:34;;;;;;;70.50;38.50;;;;;;;-7.34;80.76;97591.09;110115;1247;60090;-68
2022/01/17 03:39:03;;;;;;;;;;;;;;;-7.35;80.68;97588.55;110236;1247;59751;-66
2022/01/17 03:41:34;;;;;;;65.40;34.80;;;;;;;-7.35;80.54;97581.10;110205;1247;71490;-66
2022/01/17 03:44:04;;;;;;;60.60;32.70;;;;;;;-7.36;79.79;97576.86;110093;1247;67687;-67
2022/01/17 03:46:35;;;;;;;66.00;35.70;;;;;;;-7.39;81.02;97577.89;110229;1247;69296;-67
2022/01/17 03:49:05;;;;;;;41.90;24.00;;;;;;;-7.37;81.01;97575.01;110013;1250;59794;-68
2022/01/17 03:51:35;;;;;;;40.70;22.20;;;;;;;-7.33;80.88;97570.94;110046;1250;59681;-66
2022/01/17 03:54:06;;;;;;;47.90;27.10;;;;;;;-7.27;80.53;97568.07;109970;1249;70590;-66
2022/01/17 03:56:36;;;;;;;47.80;27.20;;;;;;;-7.22;80.35;97568.06;110038;1249;68725;-66
2022/01/17 03:59:06;;;;;;;76.10;45.70;;;;;;;-7.16;80.73;97569.08;109971;1250;68744;-66
2022/01/17 04:01:35;;;;;;;53.70;29.30;;;;;;;-7.15;80.59;97562.15;110075;1248;59742;-66
2022/01/17 04:04:05;;;;;;;55.40;29.00;;;;;;;-7.15;79.34;97560.61;110068;1248;59595;-66
2022/01/17 04:06:35;;;;;;;73.40;38.80;;;;;;;-7.21;79.93;97554.52;110098;1247;71552;-65
2022/01/17 04:09:06;;;;;;;45.20;25.10;;;;;;;-7.29;80.34;97552.31;110124;1247;68462;-67
2022/01/17 04:11:36;;;;;;;;;;;;;;;-7.37;79.86;97550.27;109986;1247;68573;-67
2022/01/17 04:14:06;;;;;;;35.20;21.30;;;;;;;-7.45;79.51;97553.66;109997;1249;59744;-66
2022/01/17 04:16:36;;;;;;;57.40;32.90;;;;;;;-7.54;79.33;97554.17;110163;1248;59676;-67
2022/01/17 04:19:06;;;;;;;35.00;16.90;;;;;;;-7.60;79.55;97560.77;110189;1247;71556;-66
2022/01/17 04:21:40;;;;;;;69.50;36.90;;;;;;;-7.65;79.46;97564.65;110214;1247;67303;-66
2022/01/17 04:24:09;;;;;;;65.30;37.00;;;;;;;-7.70;80.44;97571.59;110220;1247;68566;-67
2022/01/17 04:26:39;;;;;;;41.00;22.60;;;;;;;-7.70;80.45;97580.21;110203;1247;59764;-66
2022/01/17 04:29:08;;;;;;;52.20;29.10;;;;;;;-7.66;81.55;97579.89;110081;1250;59724;-67
2022/01/17 04:31:39;;;;;;;64.50;34.00;;;;;;;-7.62;81.63;97581.91;110275;1247;70742;-66
2022/01/17 04:34:08;;;;;;;50.90;31.50;;;;;;;-7.55;81.62;97582.27;110228;1248;67868;-65
2022/01/17 04:36:37;;;;;;;62.50;33.10;;;;;;;-7.49;82.01;97590.23;110160;1247;69424;-66
2022/01/17 04:39:10;;;;;;;54.40;31.10;;;;;;;-7.41;81.73;97583.64;110208;1246;59749;-66
2022/01/17 04:41:40;;;;;;;44.20;24.50;;;;;;;-7.33;81.59;97575.00;110184;1247;59689;-64
2022/01/17 04:46:57;;;;;;;37.70;22.00;;;;;;;-7.16;81.57;97566.71;110137;1247;67987;-69
2022/01/17 04:49:26;;;;;;;47.20;25.20;;;;;;;-7.09;80.39;97566.52;110274;1248;69495;-66
2022/01/17 04:51:56;;;;;;;35.80;23.20;;;;;;;-7.04;79.58;97565.34;110114;1248;59753;-67
2022/01/17 04:54:39;;;;;;;47.50;26.10;;;;;;;-7.00;79.34;97575.34;109942;1250;59723;-66
2022/01/17 04:57:11;;;;;;;47.10;26.00;;;;;;;-6.95;79.31;97575.34;110062;1250;71536;-65
2022/01/17 04:59:40;;;;;;;44.80;24.20;;;;;;;-6.91;79.53;97570.41;110075;1250;68397;-67
2022/01/17 05:02:10;;;;;;;39.40;23.20;;;;;;;-6.86;79.39;97559.73;110025;1249;69438;-67
2022/01/17 05:04:39;;;;;;;;;;;;;;;-6.82;79.18;97552.95;110072;1250;59695;-69
2022/01/17 05:07:09;;;;;;;53.90;25.70;;;;;;;-6.77;78.40;97552.77;110102;1250;59750;-69
2022/01/17 05:09:40;;;;;;;64.20;34.10;;;;;;;-6.77;78.54;97554.97;110069;1250;70580;-68
2022/01/17 05:12:10;;;;;;;60.30;30.60;;;;;;;-6.76;79.28;97557.17;110110;1250;68596;-66
2022/01/17 05:14:43;;;;;;;59.10;34.10;;;;;;;-6.73;79.60;97558.52;110113;1248;69436;-66
2022/01/17 05:17:37;;;;;;;43.70;25.60;;;;;;;-6.69;79.48;97563.26;110135;1249;59755;-66
2022/01/17 05:20:08;;;;;;;47.50;26.20;;;;;;;-6.62;79.11;97558.83;110167;1248;59770;-67
2022/01/17 05:22:38;;;;;;;36.40;21.70;;;;;;;-6.58;79.04;97553.23;110159;1247;71490;-67
2022/01/17 05:25:10;;;;;;;46.50;25.70;;;;;;;-6.52;79.10;97549.81;110130;1250;66813;-67
2022/01/17 05:27:39;;;;;;;44.60;25.60;;;;;;;-6.47;79.52;97547.94;110183;1248;68907;-66
2022/01/17 05:30:13;;;;;;;80.20;42.00;;;;;;;-6.44;79.67;97546.73;110149;1247;59714;-68
2022/01/17 05:32:42;;;;;;;55.60;31.40;;;;;;;-6.40;80.57;97542.99;110210;1247;59644;-66
2022/01/17 05:35:13;;;;;;;61.50;35.00;;;;;;;-6.36;80.27;97542.30;110130;1248;71269;-65
2022/01/17 05:37:43;;;;;;;48.80;27.30;;;;;;;-6.30;79.83;97548.55;110181;1247;68638;-66
2022/01/17 05:40:16;;;;;;;32.90;19.50;;;;;;;-6.24;79.55;97543.10;110155;1249;68482;-66
2022/01/17 05:42:45;;;;;;;55.70;29.90;;;;;;;-6.19;78.80;97537.66;110175;1248;59767;-66
2022/01/17 05:45:16;;;;;;;95.30;52.60;;;;;;;-6.22;79.43;97539.02;110123;1247;59673;-66
2022/01/17 05:47:46;;;;;;;96.80;52.60;;;;;;;-6.35;80.35;97539.75;110059;1250;70831;-66
2022/01/17 05:50:16;;;;;;;99.10;54.40;;;;;;;-6.46;81.28;97548.11;110163;1248;68731;-67
2022/01/17 05:52:45;;;;;;;81.50;44.40;;;;;;;-6.50;81.47;97560.15;110119;1249;69384;-66
2022/01/17 05:55:15;;;;;;;85.30;44.60;;;;;;;-6.52;81.58;97557.95;110079;1248;59678;-65
2022/01/17 05:57:44;;;;;;;76.30;42.40;;;;;;;-6.56;81.75;97550.67;109987;1248;59674;-68
2022/01/17 06:00:17;;;;;;;77.80;40.90;;;;;;;-6.55;81.24;97546.09;110163;1247;71548;-65
2022/01/17 06:02:48;;;;;;;62.50;35.10;;;;;;;-6.59;81.94;97538.32;110134;1250;68936;-68
2022/01/17 06:05:17;;;;;;;76.90;43.10;;;;;;;-6.58;81.68;97535.25;110105;1248;68417;-65
2022/01/17 06:07:46;;;;;;;81.50;43.40;;;;;;;-6.62;82.34;97538.32;110128;1249;59780;-66
2022/01/17 06:10:15;;;;;;;78.70;41.20;;;;;;;-6.67;82.49;97539.17;110162;1247;59692;-65
2022/01/17 06:12:45;;;;;;;69.80;38.60;;;;;;;-6.67;82.49;97540.86;110026;1248;70739;-66
2022/01/17 06:15:18;;;;;;;72.60;41.90;;;;;;;-6.65;82.65;97535.11;109958;1248;68611;-67
2022/01/17 06:17:47;;;;;;;58.80;32.40;;;;;;;-6.66;83.01;97534.27;110255;1249;69632;-66
2022/01/17 06:20:16;;;;;;;55.10;27.70;;;;;;;-6.62;82.68;97531.54;110194;1249;59702;-65
2022/01/17 06:22:45;;;;;;;52.10;30.30;;;;;;;-6.53;82.23;97529.14;109901;1250;59651;-65
2022/01/17 06:25:14;;;;;;;29.00;20.30;;;;;;;-6.45;81.57;97540.98;110006;1249;71317;-64
2022/01/17 06:27:44;;;;;;;37.60;21.40;;;;;;;-6.35;81.22;97544.66;110077;1247;67810;-67
2022/01/17 06:30:14;;;;;;;59.20;34.00;;;;;;;-6.26;81.14;97549.71;110161;1247;69414;-65
2022/01/17 06:32:43;;;;;;;36.20;22.00;;;;;;;-6.17;81.19;97539.50;109901;1250;60137;-65
2022/01/17 06:35:13;;;;;;;69.30;40.50;;;;;;;-6.07;81.14;97539.63;110044;1247;59703;-65
2022/01/17 06:37:44;;;;;;;71.20;38.90;;;;;;;-6.04;81.66;97549.63;110051;1248;71648;-65
2022/01/17 06:40:15;;;;;;;53.40;30.10;;;;;;;-6.00;81.81;97550.97;109805;1250;68637;-65
2022/01/17 06:42:44;;;;;;;73.70;40.10;;;;;;;-5.95;81.48;97550.42;109826;1249;69542;-64
2022/01/17 06:47:12;;;;;;;74.60;41.70;;;;;;;-5.89;82.09;97549.52;106499;1286;597371;-64
2022/01/17 06:49:42;;;;;;;77.50;44.10;;;;;;;-5.93;82.61;97548.03;109014;1260;57691;-64
2022/01/17 06:52:11;;;;;;;69.90;41.60;;;;;;;-5.99;82.64;97544.68;109186;1260;57614;-63
2022/01/17 06:54:40;;;;;;;63.90;35.20;;;;;;;-5.97;82.86;97543.13;109622;1251;68350;-63
2022/01/17 06:57:09;;;;;;;74.50;41.20;;;;;;;-5.93;82.08;97540.39;109606;1251;68622;-64
2022/01/17 06:59:39;;;;;;;72.00;40.00;;;;;;;-5.91;82.42;97541.73;109351;1251;334346;-66
2022/01/17 07:02:08;;;;;;;77.50;42.80;;;;;;;-5.87;81.89;97540.16;109846;1250;57595;-66
2022/01/17 07:04:38;;;;;;;64.50;34.40;;;;;;;-5.84;82.40;97537.77;109741;1250;57639;-63
2022/01/17 07:07:07;;;;;;;72.50;36.80;;;;;;;-5.80;82.06;97528.92;109782;1250;68360;-65
2022/01/17 07:09:37;;;;;;;75.00;43.20;;;;;;;-5.77;81.93;97524.66;109826;1251;68691;-66
2022/01/17 07:12:07;;;;;;;76.40;42.50;;;;;;;-5.77;81.81;97527.20;109830;1250;68785;-64
2022/01/17 07:14:41;;;;;;;72.10;40.50;;;;;;;-5.75;81.87;97538.57;109857;1250;58148;-63
2022/01/17 07:17:11;;;;;;;79.90;41.90;;;;;;;-5.73;81.75;97542.80;109809;1250;58060;-64
2022/01/17 07:19:41;;;;;;;68.00;37.40;;;;;;;-5.77;82.30;97535.02;109677;1250;70306;-64
2022/01/17 07:22:10;;;;;;;84.10;45.70;;;;;;;-5.75;82.11;97527.02;109980;1250;68822;-62
2022/01/17 07:24:40;;;;;;;94.90;49.00;;;;;;;-5.77;82.42;97518.03;110109;1247;69524;-66
2022/01/17 07:27:09;;;;;;;81.40;43.30;;;;;;;-5.76;82.07;97504.61;110047;1247;58086;-65
2022/01/17 07:29:40;;;;;;;90.70;46.70;;;;;;;-5.73;82.22;97511.40;110209;1247;58127;-67
2022/01/17 07:32:10;;;;;;;79.80;45.30;;;;;;;-5.73;82.69;97516.48;110238;1245;69393;-65
2022/01/17 07:34:39;;;;;;;85.20;44.70;;;;;;;-5.73;82.94;97522.42;110355;1247;68586;-65
2022/01/17 07:37:08;;;;;;;72.50;36.60;;;;;;;-5.71;82.88;97545.50;110033;1247;69308;-66
2022/01/17 07:39:37;;;;;;;63.80;37.10;;;;;;;-5.65;82.81;97575.17;110086;1247;58063;-66
2022/01/17 07:42:07;;;;;;;55.40;31.50;;;;;;;-5.60;82.82;97590.60;110075;1248;58097;-66
2022/01/17 07:44:39;;;;;;;65.30;37.40;;;;;;;-5.53;82.18;97580.37;110030;1246;70492;-67
2022/01/17 07:47:17;;;;;;;65.00;37.50;;;;;;;-5.47;81.78;97585.25;110703;1245;68698;-67
2022/01/17 07:49:47;;;;;;;66.60;38.00;;;;;;;-5.44;81.81;97568.09;110513;1244;68597;-67
2022/01/17 07:52:36;;;;;;;79.00;44.10;;;;;;;-5.45;82.01;97547.20;110496;1244;58181;-66
2022/01/17 07:55:05;;;;;;;59.90;34.90;;;;;;;-5.43;81.78;97531.21;110523;1245;58086;-69
2022/01/17 07:57:35;;;;;;;70.50;39.60;;;;;;;-5.39;81.37;97516.58;110570;1244;69181;-64
2022/01/17 08:00:07;;;;;;;64.60;36.30;;;;;;;-5.29;81.06;97495.42;110425;1245;69176;-65
2022/01/17 08:02:47;;;;;;;79.40;44.10;;;;;;;-5.24;80.98;97485.02;110430;1244;68690;-67
2022/01/17 08:05:17;;;;;;;87.10;48.60;;;;;;;-5.24;81.11;97484.67;110536;1244;58066;-66
2022/01/17 08:07:46;;;;;;;68.60;39.60;;;;;;;-5.20;81.36;97462.04;110537;1244;58105;-65
2022/01/17 08:10:15;;;;;;;60.40;32.40;;;;;;;-5.14;81.15;97454.33;110236;1245;69188;-65
2022/01/17 08:12:47;;;;;;;50.20;28.50;;;;;;;-5.05;81.02;97460.87;110528;1244;69180;-66
2022/01/17 08:15:17;;;;;;;42.60;24.90;;;;;;;-4.97;80.85;97455.85;110490;1244;69855;-67
2022/01/17 08:17:46;;;;;;;;;;;;;;;-4.87;80.63;97486.00;110539;1244;58094;-65
2022/01/17 08:20:17;;;;;;;54.20;29.40;;;;;;;-4.79;80.48;97525.71;110420;1244;58040;-66
2022/01/17 08:22:46;;;;;;;43.90;26.40;;;;;;;-4.73;80.35;97540.95;110502;1244;69234;-66
2022/01/17 08:25:16;;;;;;;55.00;31.70;;;;;;;-4.64;80.11;97564.83;110490;1244;68824;-66
2022/01/17 08:27:45;;;;;;;50.50;29.30;;;;;;;-4.56;79.56;97588.41;110461;1244;69840;-67
2022/01/17 08:30:15;;;;;;;50.60;30.20;;;;;;;-4.50;79.23;97582.05;110247;1247;58137;-66
2022/01/17 08:33:04;;;;;;;42.00;24.90;;;;;;;-4.44;79.04;97551.52;110480;1244;58001;-65
2022/01/17 08:35:33;;;;;;;57.70;33.20;;;;;;;-4.40;78.97;97556.08;110562;1244;69726;-67
2022/01/17 08:38:03;;;;;;;72.00;38.50;;;;;;;-4.39;78.82;97538.21;110246;1244;68400;-67
2022/01/17 08:40:32;;;;;;;66.40;35.80;;;;;;;-4.40;78.67;97507.77;110312;1246;70035;-65
2022/01/17 08:43:01;;;;;;;77.70;40.40;;;;;;;-4.42;79.00;97505.92;110605;1244;58126;-68
2022/01/17 08:45:30;;;;;;;83.20;44.20;;;;;;;-4.42;79.21;97506.09;110488;1244;58069;-66
2022/01/17 08:48:14;;;;;;;71.30;41.40;;;;;;;-4.41;78.97;97489.23;110533;1245;70036;-68
2022/01/17 08:50:46;;;;;;;78.20;43.30;;;;;;;-4.39;78.78;97486.99;110415;1244;68624;-68
2022/01/17 08:53:15;;;;;;;49.90;29.00;;;;;;;-4.38;79.00;97477.11;110554;1244;69389;-65
2022/01/17 08:55:46;;;;;;;81.60;43.60;;;;;;;-4.33;78.77;97459.35;110555;1243;58122;-67
2022/01/17 08:58:15;;;;;;;54.60;30.60;;;;;;;-4.32;78.60;97471.92;110238;1247;58084;-69
2022/01/17 09:00:44;;;;;;;53.40;29.90;;;;;;;-4.29;78.38;97481.27;110497;1245;70693;-67
2022/01/17 09:03:21;;;;;;;68.80;40.60;;;;;;;-4.27;78.73;97461.48;110534;1244;68643;-67
2022/01/17 09:05:52;;;;;;;71.80;41.00;;;;;;;-4.26;78.57;97468.45;110550;1244;69698;-68
2022/01/17 09:08:22;;;;;;;74.70;43.10;;;;;;;-4.24;78.64;97474.55;110536;1244;59208;-69
2022/01/17 09:10:55;;;;;;;67.10;37.50;;;;;;;-4.18;78.82;97479.75;110574;1244;58075;-67
2022/01/17 09:13:25;;;;;;;53.20;30.70;;;;;;;-4.13;78.76;97473.55;110289;1244;70462;-70
2022/01/17 09:15:54;;;;;;;62.20;35.90;;;;;;;-4.08;78.66;97455.44;110581;1244;68612;-71
2022/01/17 09:18:24;;;;;;;54.90;30.40;;;;;;;-4.04;78.74;97462.54;110474;1244;69488;-72
2022/01/17 09:20:53;;;;;;;65.50;34.80;;;;;;;-3.98;78.78;97455.30;110488;1244;58337;-67
2022/01/17 09:23:23;;;;;;;68.80;36.00;;;;;;;-3.92;78.60;97453.52;110431;1244;58084;-67
2022/01/17 09:25:52;;;;;;;67.50;39.60;;;;;;;-3.88;78.29;97443.23;110518;1244;69956;-66
2022/01/17 09:28:23;;;;;;;64.90;35.80;;;;;;;-3.89;77.86;97432.52;110514;1244;69156;-69
2022/01/17 09:30:51;;;;;;;;;;;;;;;-3.89;77.80;97432.17;110303;1244;70109;-67
2022/01/17 09:33:20;;;;;;;60.90;31.40;;;;;;;-3.85;77.91;97430.75;110530;1244;58096;-66
2022/01/17 09:35:50;;;;;;;59.80;36.60;;;;;;;-3.80;78.16;97434.77;110217;1247;58124;-67
2022/01/17 09:38:19;;;;;;;48.60;29.40;;;;;;;-3.76;78.07;97425.33;110335;1245;69120;-67
2022/01/17 09:40:48;;;;;;;43.30;23.00;;;;;;;-3.70;77.96;97428.99;110491;1245;68218;-68
2022/01/17 09:43:37;;;;;;;57.60;33.40;;;;;;;-3.62;77.34;97425.62;110407;1246;69996;-67
2022/01/17 09:46:07;;;;;;;49.10;28.80;;;;;;;-3.60;77.24;97421.50;110443;1246;58059;-67
2022/01/17 09:48:39;;;;;;;54.30;29.50;;;;;;;-3.57;77.27;97422.31;110455;1246;58036;-67
2022/01/17 09:51:20;;;;;;;49.00;26.80;;;;;;;-3.56;77.33;97435.40;110435;1245;69701;-66
2022/01/17 09:53:54;;;;;;;45.10;25.50;;;;;;;-3.52;77.10;97435.34;110419;1246;67850;-68
2022/01/17 09:56:24;;;;;;;57.80;30.80;;;;;;;-3.51;77.15;97424.08;110254;1244;68606;-66
2022/01/17 09:58:54;;;;;;;29.30;19.30;;;;;;;-3.48;77.47;97417.73;110532;1244;58077;-67
2022/01/17 10:01:24;;;;;;;57.10;33.10;;;;;;;-3.40;77.22;97408.21;110489;1244;58102;-66
2022/01/17 10:03:56;;;;;;;58.80;34.10;;;;;;;-3.34;77.95;97402.83;110454;1244;69799;-68
2022/01/17 10:06:26;;;;;;;57.40;32.00;;;;;;;-3.27;78.06;97395.21;110490;1244;69786;-66
2022/01/17 10:09:17;;;;;;;47.00;25.20;;;;;;;-3.17;78.00;97391.45;110244;1244;69399;-68
2022/01/17 10:12:16;;;;;;;45.60;24.60;;;;;;;-3.06;77.35;97383.21;110614;1244;57996;-67
2022/01/17 10:14:59;;;;;;;42.50;25.20;;;;;;;-2.97;77.04;97387.14;109557;1253;58094;-68
2022/01/17 10:17:46;;;;;;;41.00;23.50;;;;;;;-2.93;76.78;97384.52;109579;1256;70003;-67
2022/01/17 10:20:17;;;;;;;69.90;39.40;;;;;;;-2.91;76.60;97376.44;109636;1253;67786;-66
2022/01/17 10:22:59;;;;;;;53.40;30.80;;;;;;;-2.95;76.81;97374.32;109527;1253;68759;-65
2022/01/17 10:34:53;;;;;;;62.00;34.10;;;;;;;-2.99;77.14;97353.42;109609;1253;68803;-66
2022/01/17 10:36:56;;;;;;;80.80;46.20;;;;;;;-2.99;76.92;97336.36;109588;1253;68891;-66
2022/01/17 10:39:25;;;;;;;59.00;34.60;;;;;;;-3.01;78.23;97328.23;109615;1253;58234;-66
2022/01/17 10:41:54;;;;;;;59.60;34.90;;;;;;;-2.97;77.70;97317.38;109663;1253;58179;-66
2022/01/17 10:44:38;;;;;;;57.40;33.00;;;;;;;-2.91;77.78;97311.81;109533;1253;69940;-65
2022/01/17 10:47:20;;;;;;;60.40;34.50;;;;;;;-2.85;77.32;97299.23;109645;1253;69183;-68
2022/01/17 10:49:52;;;;;;;54.60;32.80;;;;;;;-2.86;77.56;97297.70;109526;1254;69544;-68
2022/01/17 10:52:31;;;;;;;52.20;30.00;;;;;;;-2.91;77.70;97291.50;110154;1246;58120;-66
2022/01/17 10:55:06;;;;;;;58.90;30.60;;;;;;;-2.92;77.36;97278.55;110519;1244;58080;-68
2022/01/17 10:57:39;;;;;;;52.00;28.70;;;;;;;-2.95;77.70;97266.02;110529;1244;70588;-66
2022/01/17 11:00:12;;;;;;;41.20;23.70;;;;;;;-2.96;77.85;97260.75;110526;1244;69239;-66
2022/01/17 11:02:45;;;;;;;50.00;28.10;;;;;;;-2.96;77.60;97252.38;110413;1246;69826;-67
2022/01/17 11:05:17;;;;;;;50.40;28.10;;;;;;;-2.94;77.66;97235.66;110466;1244;59296;-67
2022/01/17 11:07:48;;;;;;;46.40;26.10;;;;;;;-2.93;77.86;97234.75;110573;1244;58792;-68
2022/01/17 11:10:22;;;;;;;49.30;27.40;;;;;;;-2.89;77.76;97227.00;110474;1244;70521;-67
2022/01/17 11:12:53;;;;;;;52.40;30.20;;;;;;;-2.87;78.28;97217.91;110532;1244;68642;-67
2022/01/17 11:15:22;;;;;;;;;;;;;;;-2.84;78.29;97206.74;110549;1244;67648;-68
2022/01/17 11:17:54;;;;;;;49.00;29.90;;;;;;;-2.79;78.33;97204.77;110494;1244;58865;-66
2022/01/17 11:20:27;;;;;;;39.00;22.60;;;;;;;-2.75;78.61;97200.23;110505;1244;58935;-67
2022/01/17 11:22:59;;;;;;;73.40;37.40;;;;;;;-2.69;78.17;97185.60;110546;1244;71308;-69
2022/01/17 11:25:31;;;;;;;62.50;36.20;;;;;;;-2.66;78.03;97175.13;110496;1244;67963;-67
2022/01/17 11:28:04;;;;;;;59.60;32.20;;;;;;;-2.64;77.91;97172.34;110424;1244;69578;-67
2022/01/17 11:30:35;;;;;;;73.00;39.30;;;;;;;-2.63;78.45;97179.49;110262;1246;58983;-67
2022/01/17 11:33:07;;;;;;;61.10;34.50;;;;;;;-2.65;78.48;97173.89;110305;1244;58923;-64
2022/01/17 11:35:42;;;;;;;62.60;37.00;;;;;;;-2.66;78.64;97161.66;110249;1244;70523;-67
2022/01/17 11:38:15;;;;;;;63.30;35.80;;;;;;;-2.67;79.03;97158.45;110596;1244;68773;-67
2022/01/17 11:40:44;;;;;;;56.30;32.50;;;;;;;-2.67;79.13;97151.45;110532;1244;69533;-67
2022/01/17 11:43:35;;;;;;;66.20;36.20;;;;;;;-2.63;79.74;97139.73;110355;1247;58851;-66
2022/01/17 11:46:19;;;;;;;42.90;25.80;;;;;;;-2.55;79.17;97135.11;110523;1244;58900;-67
2022/01/17 11:48:58;;;;;;;40.40;23.00;;;;;;;-2.48;78.87;97127.93;110334;1247;71168;-67
2022/01/17 11:51:46;;;;;;;43.80;26.60;;;;;;;-2.40;78.17;97118.02;110446;1244;68085;-66